createdAt,value
2022-10-08T00:02:09.545Z,15.80
2022-10-08T00:04:54.935Z,15.90
2022-10-08T00:07:42.121Z,15.90
2022-10-08T00:10:27.908Z,15.90
2022-10-08T00:13:13.280Z,15.80
2022-10-08T00:15:58.977Z,15.80
2022-10-08T00:18:47.121Z,15.80
2022-10-08T00:21:36.360Z,15.60
2022-10-08T00:24:22.086Z,15.60
2022-10-08T00:27:07.869Z,15.70
2022-10-08T00:29:53.999Z,15.60
2022-10-08T00:32:39.658Z,15.60
2022-10-08T00:35:25.300Z,15.60
2022-10-08T00:38:10.739Z,15.60
2022-10-08T00:40:56.530Z,15.60
2022-10-08T00:43:49.124Z,15.60
2022-10-08T00:46:48.732Z,15.50
2022-10-08T00:49:34.573Z,15.50
2022-10-08T00:52:21.761Z,15.50
2022-10-08T00:55:08.786Z,15.50
2022-10-08T00:58:01.245Z,15.40
2022-10-08T01:00:47.752Z,15.40
2022-10-08T01:03:33.233Z,15.40
2022-10-08T01:07:04.486Z,15.40
2022-10-08T01:09:50.008Z,15.40
2022-10-08T01:13:04.319Z,15.50
2022-10-08T01:16:03.875Z,15.40
2022-10-08T01:19:21.791Z,15.40
2022-10-08T01:22:48.801Z,15.40
2022-10-08T01:25:44.721Z,15.30
2022-10-08T01:28:43.629Z,15.30
2022-10-08T01:31:42.299Z,15.30
2022-10-08T01:34:37.634Z,15.10
2022-10-08T01:37:31.937Z,15.10
2022-10-08T01:40:22.204Z,15.00
2022-10-08T01:43:11.089Z,15.00
2022-10-08T01:46:14.514Z,15.00
2022-10-08T01:49:07.257Z,14.90
2022-10-08T01:52:00.115Z,14.90
2022-10-08T01:54:48.289Z,14.90
2022-10-08T01:57:35.923Z,14.90
2022-10-08T02:00:21.672Z,15.00
2022-10-08T02:03:08.366Z,15.00
2022-10-08T02:05:55.744Z,14.90
2022-10-08T02:08:41.170Z,14.90
2022-10-08T02:11:26.650Z,14.90
2022-10-08T02:14:12.130Z,14.90
2022-10-08T02:17:28.817Z,14.90
2022-10-08T02:20:14.580Z,15.00
2022-10-08T02:23:06.836Z,14.90
2022-10-08T02:25:58.318Z,15.00
2022-10-08T02:28:56.900Z,15.00
2022-10-08T02:31:54.804Z,14.90
2022-10-08T02:34:45.964Z,14.90
2022-10-08T02:37:48.485Z,14.90
2022-10-08T02:40:37.382Z,14.90
2022-10-08T02:43:30.745Z,14.90
2022-10-08T02:46:23.374Z,15.00
2022-10-08T02:49:15.078Z,14.90
2022-10-08T02:52:03.077Z,14.90
2022-10-08T02:54:51.533Z,14.80
2022-10-08T02:57:45.068Z,14.80
2022-10-08T03:00:36.936Z,14.80
2022-10-08T03:03:30.239Z,14.80
2022-10-08T03:06:17.794Z,14.90
2022-10-08T03:09:06.862Z,14.90
2022-10-08T03:11:54.853Z,15.00
2022-10-08T03:14:43.874Z,15.00
2022-10-08T03:17:33.057Z,15.10
2022-10-08T03:20:18.656Z,15.10
2022-10-08T03:23:04.277Z,15.00
2022-10-08T03:25:49.809Z,15.00
2022-10-08T03:28:35.383Z,15.00
2022-10-08T03:31:20.889Z,15.10
2022-10-08T03:34:07.575Z,15.10
2022-10-08T03:36:53.571Z,15.00
2022-10-08T03:39:39.277Z,15.80
2022-10-08T03:42:25.055Z,14.90
2022-10-08T03:45:10.540Z,14.90
2022-10-08T03:47:56.045Z,15.00
2022-10-08T03:50:51.185Z,15.10
2022-10-08T03:53:38.586Z,15.20
2022-10-08T03:56:24.976Z,15.20
2022-10-08T03:59:10.792Z,15.10
2022-10-08T04:01:56.566Z,15.20
2022-10-08T04:04:42.297Z,15.20
2022-10-08T04:07:27.896Z,15.20
2022-10-08T04:10:13.575Z,15.20
2022-10-08T04:12:59.232Z,15.30
2022-10-08T04:15:47.447Z,15.30
2022-10-08T04:18:34.035Z,15.40
2022-10-08T04:21:20.154Z,15.30
2022-10-08T04:24:05.733Z,15.30
2022-10-08T04:26:51.141Z,15.30
2022-10-08T04:29:36.701Z,15.40
2022-10-08T04:32:22.211Z,15.40
2022-10-08T04:35:07.913Z,15.40
2022-10-08T04:37:53.431Z,15.40
2022-10-08T04:40:38.900Z,15.30
2022-10-08T04:43:24.490Z,15.30
2022-10-08T04:46:12.451Z,15.20
2022-10-08T04:48:58.254Z,15.10
2022-10-08T04:51:44.006Z,15.10
2022-10-08T04:54:29.435Z,15.00
2022-10-08T04:57:14.821Z,15.10
2022-10-08T05:00:17.496Z,15.00
2022-10-08T05:03:04.162Z,15.10
2022-10-08T05:05:49.761Z,15.00
2022-10-08T05:08:36.262Z,15.10
2022-10-08T05:11:25.633Z,15.00
2022-10-08T05:14:11.357Z,15.00
2022-10-08T05:16:56.973Z,14.90
2022-10-08T05:19:42.377Z,14.90
2022-10-08T05:22:27.894Z,15.00
2022-10-08T05:25:13.976Z,15.00
2022-10-08T05:27:59.608Z,14.90
2022-10-08T05:30:45.748Z,14.90
2022-10-08T05:33:31.105Z,14.80
2022-10-08T05:36:28.306Z,14.80
2022-10-08T05:39:14.397Z,14.80
2022-10-08T05:41:59.913Z,14.90
2022-10-08T05:44:45.656Z,14.90
2022-10-08T05:47:31.435Z,14.90
2022-10-08T05:50:17.021Z,14.90
2022-10-08T05:53:05.332Z,14.80
2022-10-08T05:56:00.704Z,14.90
2022-10-08T05:58:46.745Z,14.80
2022-10-08T06:01:34.054Z,14.90
2022-10-08T06:04:19.922Z,14.90
2022-10-08T06:07:05.543Z,14.90
2022-10-08T06:09:52.303Z,14.90
2022-10-08T06:12:38.321Z,14.80
2022-10-08T06:15:24.042Z,14.90
2022-10-08T06:18:09.736Z,14.90
2022-10-08T06:20:55.381Z,14.90
2022-10-08T06:23:47.118Z,14.90
2022-10-08T06:26:36.819Z,14.90
2022-10-08T06:29:22.733Z,14.90
2022-10-08T06:32:09.022Z,15.00
2022-10-08T06:34:55.161Z,15.10
2022-10-08T06:37:40.815Z,15.10
2022-10-08T06:40:26.778Z,15.10
2022-10-08T06:43:19.585Z,15.10
2022-10-08T06:46:06.382Z,15.10
2022-10-08T06:48:51.973Z,15.10
2022-10-08T06:51:37.489Z,15.00
2022-10-08T06:54:26.126Z,15.00
2022-10-08T06:57:11.744Z,15.00
2022-10-08T06:59:58.985Z,15.00
2022-10-08T07:02:45.417Z,15.00
2022-10-08T07:05:33.069Z,15.10
2022-10-08T07:08:18.881Z,15.20
2022-10-08T07:11:09.570Z,15.20
2022-10-08T07:13:56.377Z,15.20
2022-10-08T07:16:42.320Z,15.20
2022-10-08T07:19:27.911Z,15.30
2022-10-08T07:22:14.320Z,15.20
2022-10-08T07:25:01.497Z,15.20
2022-10-08T07:27:47.098Z,15.20
2022-10-08T07:30:33.069Z,15.20
2022-10-08T07:33:18.688Z,15.20
2022-10-08T07:36:16.799Z,15.20
2022-10-08T07:39:08.432Z,15.30
2022-10-08T07:41:54.134Z,15.30
2022-10-08T07:44:40.291Z,15.20
2022-10-08T07:47:25.840Z,15.20
2022-10-08T07:50:11.372Z,15.30
2022-10-08T07:52:56.852Z,15.30
2022-10-08T07:55:42.611Z,15.30
2022-10-08T07:58:28.672Z,15.40
2022-10-08T08:01:22.016Z,15.50
2022-10-08T08:04:09.882Z,15.40
2022-10-08T08:06:55.639Z,15.50
2022-10-08T08:09:41.219Z,15.40
2022-10-08T08:12:26.685Z,15.40
2022-10-08T08:15:12.174Z,15.30
2022-10-08T08:17:57.869Z,15.30
2022-10-08T08:20:43.518Z,15.30
2022-10-08T08:23:30.527Z,15.20
2022-10-08T08:26:22.408Z,15.20
2022-10-08T08:29:17.100Z,15.20
2022-10-08T08:32:02.865Z,15.20
2022-10-08T08:34:48.483Z,15.20
2022-10-08T08:37:34.273Z,15.20
2022-10-08T08:40:20.202Z,15.30
2022-10-08T08:43:05.658Z,15.30
2022-10-08T08:45:51.314Z,15.30
2022-10-08T08:48:37.868Z,15.30
2022-10-08T08:51:23.393Z,15.30
2022-10-08T08:54:09.240Z,15.30
2022-10-08T08:56:55.359Z,15.30
2022-10-08T08:59:46.815Z,15.30
2022-10-08T09:02:43.524Z,15.40
2022-10-08T09:05:33.167Z,15.40
2022-10-08T09:08:28.758Z,15.40
2022-10-08T09:11:17.377Z,15.50
2022-10-08T09:14:21.569Z,15.50
2022-10-08T09:17:17.376Z,15.60
2022-10-08T09:20:03.371Z,15.70
2022-10-08T09:22:50.965Z,15.90
2022-10-08T09:25:37.166Z,16.00
2022-10-08T09:28:46.050Z,16.10
2022-10-08T09:31:40.733Z,16.10
2022-10-08T09:34:27.257Z,16.20
2022-10-08T09:37:23.131Z,16.30
2022-10-08T09:40:29.440Z,16.50
2022-10-08T09:43:17.640Z,16.60
2022-10-08T09:46:12.184Z,16.50
2022-10-08T09:49:34.148Z,16.70
2022-10-08T09:52:20.982Z,16.50
2022-10-08T09:55:15.570Z,16.50
2022-10-08T09:58:03.504Z,16.40
2022-10-08T10:00:58.353Z,16.50
2022-10-08T10:03:58.733Z,16.50
2022-10-08T10:06:48.248Z,16.60
2022-10-08T10:09:44.674Z,16.60
2022-10-08T10:12:41.211Z,16.60
2022-10-08T10:15:38.445Z,16.60
2022-10-08T10:18:55.178Z,16.70
2022-10-08T10:21:53.365Z,16.80
2022-10-08T10:24:51.219Z,17.00
2022-10-08T10:27:45.927Z,17.20
2022-10-08T10:30:44.323Z,17.40
2022-10-08T10:33:34.257Z,17.40
2022-10-08T10:36:22.157Z,17.40
2022-10-08T10:39:29.236Z,17.40
2022-10-08T10:42:31.964Z,17.40
2022-10-08T10:45:24.309Z,17.30
2022-10-08T10:48:14.486Z,17.20
2022-10-08T10:51:28.532Z,17.10
2022-10-08T10:54:36.177Z,17.10
2022-10-08T10:57:43.748Z,17.00
2022-10-08T11:01:13.653Z,16.90
2022-10-08T11:04:14.860Z,16.90
2022-10-08T11:07:00.355Z,16.80
2022-10-08T11:10:02.588Z,16.80
2022-10-08T11:13:13.297Z,16.90
2022-10-08T11:16:25.238Z,16.90
2022-10-08T11:19:36.714Z,17.00
2022-10-08T11:22:59.587Z,17.00
2022-10-08T11:26:21.925Z,17.10
2022-10-08T11:29:28.578Z,17.00
2022-10-08T11:32:16.757Z,17.20
2022-10-08T11:35:13.552Z,17.30
2022-10-08T11:38:06.896Z,17.30
2022-10-08T11:41:07.095Z,17.30
2022-10-08T11:44:00.360Z,17.30
2022-10-08T11:46:46.116Z,17.40
2022-10-08T11:49:31.549Z,17.60
2022-10-08T11:52:17.103Z,17.70
2022-10-08T11:55:02.937Z,18.00
2022-10-08T11:58:08.982Z,18.20
2022-10-08T12:01:06.685Z,18.40
2022-10-08T12:04:18.224Z,18.70
2022-10-08T12:07:21.863Z,19.00
2022-10-08T12:10:07.887Z,19.30
2022-10-08T12:12:53.677Z,19.50
2022-10-08T12:15:40.450Z,19.80
2022-10-08T12:18:26.650Z,20.00
2022-10-08T12:21:21.130Z,20.70
2022-10-08T12:24:38.783Z,20.30
2022-10-08T12:27:27.774Z,20.60
2022-10-08T12:30:16.673Z,20.60
2022-10-08T12:33:02.667Z,20.70
2022-10-08T12:36:20.071Z,20.80
2022-10-08T12:39:17.930Z,20.90
2022-10-08T12:42:17.152Z,21.00
2022-10-08T12:45:26.303Z,21.10
2022-10-08T12:48:40.500Z,21.20
2022-10-08T12:51:35.785Z,21.40
2022-10-08T12:54:24.127Z,21.40
2022-10-08T12:57:13.625Z,21.60
2022-10-08T13:00:10.768Z,21.70
2022-10-08T13:03:14.203Z,21.80
2022-10-08T13:06:23.664Z,22.00
2022-10-08T13:09:28.167Z,22.10
2022-10-08T13:12:13.923Z,22.30
2022-10-08T13:15:03.598Z,22.40
2022-10-08T13:17:49.624Z,22.50
2022-10-08T13:20:35.753Z,22.70
2022-10-08T13:23:44.908Z,22.80
2022-10-08T13:26:41.673Z,23.00
2022-10-08T13:29:30.077Z,23.10
2022-10-08T13:32:16.093Z,23.10
2022-10-08T13:35:04.528Z,23.30
2022-10-08T13:37:54.194Z,23.40
2022-10-08T13:40:40.079Z,23.50
2022-10-08T13:43:26.657Z,23.40
2022-10-08T13:46:12.484Z,23.20
2022-10-08T13:48:58.362Z,23.00
2022-10-08T13:51:43.953Z,22.90
2022-10-08T13:54:32.447Z,23.40
2022-10-08T13:57:18.055Z,22.60
2022-10-08T14:00:05.262Z,22.60
2022-10-08T14:02:51.783Z,22.70
2022-10-08T14:05:41.724Z,22.90
2022-10-08T14:08:29.379Z,23.10
2022-10-08T14:11:17.782Z,23.10
2022-10-08T14:14:03.808Z,23.10
2022-10-08T14:16:50.056Z,23.10
2022-10-08T14:19:35.672Z,23.00
2022-10-08T14:22:21.458Z,22.90
2022-10-08T14:25:18.153Z,22.80
2022-10-08T14:28:03.712Z,22.90
2022-10-08T14:30:49.273Z,22.90
2022-10-08T14:33:34.742Z,22.80
2022-10-08T14:36:23.821Z,22.80
2022-10-08T14:39:10.162Z,22.80
2022-10-08T14:41:56.012Z,22.80
2022-10-08T14:44:41.590Z,22.90
2022-10-08T14:47:27.211Z,22.80
2022-10-08T14:50:13.576Z,22.70
2022-10-08T14:52:59.140Z,22.60
2022-10-08T14:56:07.492Z,22.60
2022-10-08T14:58:50.256Z,22.60
2022-10-08T15:01:36.733Z,22.60
2022-10-08T15:04:22.337Z,22.50
2022-10-08T15:07:07.960Z,22.30
2022-10-08T15:09:53.441Z,22.20
2022-10-08T15:12:38.962Z,22.10
2022-10-08T15:15:24.631Z,22.00
2022-10-08T15:18:11.785Z,22.00
2022-10-08T15:21:00.170Z,22.00
2022-10-08T15:23:46.002Z,22.10
2022-10-08T15:26:31.592Z,22.10
2022-10-08T15:29:17.023Z,22.10
2022-10-08T15:32:02.674Z,22.20
2022-10-08T15:34:48.240Z,22.20
2022-10-08T15:37:33.805Z,22.30
2022-10-08T15:40:19.415Z,22.30
2022-10-08T15:43:04.833Z,22.30
2022-10-08T15:45:50.313Z,22.20
2022-10-08T15:48:35.669Z,22.10
2022-10-08T15:51:22.320Z,22.00
2022-10-08T15:54:08.548Z,21.90
2022-10-08T15:56:54.117Z,21.80
2022-10-08T15:59:39.780Z,21.70
2022-10-08T16:02:25.669Z,21.60
2022-10-08T16:05:11.035Z,21.50
2022-10-08T16:07:56.552Z,21.50
2022-10-08T16:10:41.920Z,21.40
2022-10-08T16:13:27.300Z,21.40
2022-10-08T16:16:15.349Z,21.30
2022-10-08T16:19:04.205Z,21.20
2022-10-08T16:21:51.358Z,21.20
2022-10-08T16:24:37.057Z,21.10
2022-10-08T16:27:22.352Z,21.10
2022-10-08T16:30:08.257Z,21.00
2022-10-08T16:32:53.977Z,21.00
2022-10-08T16:35:39.412Z,20.90
2022-10-08T16:38:24.896Z,20.90
2022-10-08T16:41:18.948Z,20.80
2022-10-08T16:44:18.962Z,20.70
2022-10-08T16:47:04.963Z,20.70
2022-10-08T16:49:50.917Z,20.60
2022-10-08T16:52:36.240Z,20.60
2022-10-08T16:55:21.701Z,20.50
2022-10-08T16:58:07.184Z,20.40
2022-10-08T17:00:52.744Z,20.30
2022-10-08T17:03:38.544Z,20.20
2022-10-08T17:06:25.813Z,20.20
2022-10-08T17:09:11.855Z,20.10
2022-10-08T17:11:57.769Z,20.10
2022-10-08T17:14:43.256Z,20.00
2022-10-08T17:17:28.884Z,19.90
2022-10-08T17:20:14.424Z,19.80
2022-10-08T17:23:00.408Z,19.70
2022-10-08T17:25:46.307Z,19.60
2022-10-08T17:28:37.905Z,19.50
2022-10-08T17:31:26.300Z,19.30
2022-10-08T17:34:12.195Z,19.20
2022-10-08T17:36:58.091Z,19.10
2022-10-08T17:39:43.639Z,19.00
2022-10-08T17:42:29.214Z,19.00
2022-10-08T17:45:14.686Z,18.90
2022-10-08T17:48:00.160Z,18.70
2022-10-08T17:50:45.868Z,18.70
2022-10-08T17:53:31.571Z,18.70
2022-10-08T17:56:17.276Z,18.60
2022-10-08T17:59:03.120Z,18.40
2022-10-08T18:01:48.966Z,18.30
2022-10-08T18:04:34.392Z,18.30
2022-10-08T18:07:19.741Z,18.30
2022-10-08T18:10:06.054Z,18.20
2022-10-08T18:12:51.817Z,18.00
2022-10-08T18:15:37.347Z,17.90
2022-10-08T18:18:22.820Z,17.90
2022-10-08T18:21:09.806Z,17.80
2022-10-08T18:23:55.352Z,17.70
2022-10-08T18:26:41.210Z,17.70
2022-10-08T18:29:26.660Z,17.60
2022-10-08T18:32:12.200Z,17.50
2022-10-08T18:34:57.572Z,17.50
2022-10-08T18:37:43.126Z,17.60
2022-10-08T18:40:32.646Z,17.50
2022-10-08T18:43:17.828Z,17.40
2022-10-08T18:46:04.410Z,17.40
2022-10-08T18:48:50.396Z,17.40
2022-10-08T18:51:35.808Z,17.30
2022-10-08T18:54:21.382Z,17.30
2022-10-08T18:57:06.919Z,17.20
2022-10-08T18:59:52.809Z,17.20
2022-10-08T19:02:38.776Z,17.10
2022-10-08T19:05:24.429Z,17.00
2022-10-08T19:08:10.044Z,17.00
2022-10-08T19:10:55.694Z,17.00
2022-10-08T19:13:41.472Z,16.90
2022-10-08T19:16:27.361Z,16.90
2022-10-08T19:19:15.927Z,16.80
2022-10-08T19:22:01.783Z,16.90
2022-10-08T19:24:48.900Z,16.90
2022-10-08T19:27:34.461Z,16.80
2022-10-08T19:30:24.819Z,16.80
2022-10-08T19:33:11.828Z,16.70
2022-10-08T19:36:01.110Z,16.60
2022-10-08T19:38:58.771Z,16.60
2022-10-08T19:41:45.461Z,16.60
2022-10-08T19:44:31.209Z,16.50
2022-10-08T19:47:16.834Z,16.40
2022-10-08T19:50:03.192Z,16.50
2022-10-08T19:52:51.733Z,16.40
2022-10-08T19:55:38.185Z,16.40
2022-10-08T19:58:24.696Z,16.40
2022-10-08T20:01:15.024Z,16.40
2022-10-08T20:04:01.751Z,16.40
2022-10-08T20:06:47.634Z,16.30
2022-10-08T20:09:36.095Z,16.30
2022-10-08T20:12:21.450Z,16.20
2022-10-08T20:15:10.045Z,16.30
2022-10-08T20:17:55.602Z,16.30
2022-10-08T20:20:41.274Z,16.20
2022-10-08T20:23:27.107Z,16.20
2022-10-08T20:26:24.856Z,16.20
2022-10-08T20:29:14.133Z,16.10
2022-10-08T20:32:00.807Z,16.10
2022-10-08T20:34:46.493Z,16.00
2022-10-08T20:37:32.116Z,16.00
2022-10-08T20:40:18.000Z,16.00
2022-10-08T20:43:03.400Z,16.00
2022-10-08T20:45:48.726Z,16.00
2022-10-08T20:48:35.775Z,16.00
2022-10-08T20:51:23.209Z,16.00
2022-10-08T20:54:11.255Z,16.10
2022-10-08T20:56:57.217Z,16.10
2022-10-08T20:59:42.545Z,16.10
2022-10-08T21:02:28.025Z,16.10
2022-10-08T21:05:14.460Z,16.00
2022-10-08T21:07:59.818Z,16.00
2022-10-08T21:10:45.348Z,16.00
2022-10-08T21:13:31.397Z,16.10
2022-10-08T21:16:24.948Z,15.90
2022-10-08T21:19:18.998Z,16.00
2022-10-08T21:22:04.512Z,17.30
2022-10-08T21:24:50.476Z,15.90
2022-10-08T21:27:36.125Z,16.00
2022-10-08T21:30:21.709Z,15.90
2022-10-08T21:33:07.205Z,15.80
2022-10-08T21:35:56.392Z,15.80
2022-10-08T21:38:42.417Z,15.80
2022-10-08T21:41:30.958Z,15.70
2022-10-08T21:44:16.841Z,15.50
2022-10-08T21:47:02.644Z,15.70
2022-10-08T21:49:48.628Z,15.60
2022-10-08T21:52:34.117Z,15.60
2022-10-08T21:55:19.751Z,15.70
2022-10-08T21:58:05.177Z,15.60
2022-10-08T22:00:50.873Z,15.60
2022-10-08T22:03:36.737Z,15.60
2022-10-08T22:06:22.769Z,15.60
2022-10-08T22:09:11.693Z,15.50
2022-10-08T22:11:58.927Z,15.30
2022-10-08T22:14:44.353Z,15.30
2022-10-08T22:17:29.863Z,15.30
2022-10-08T22:20:15.386Z,15.20
2022-10-08T22:23:00.842Z,15.10
2022-10-08T22:26:01.484Z,15.10
2022-10-08T22:28:47.972Z,15.10
2022-10-08T22:31:34.231Z,15.00
2022-10-08T22:34:19.807Z,15.00
2022-10-08T22:37:05.269Z,14.80
2022-10-08T22:39:50.698Z,14.80
2022-10-08T22:42:36.028Z,14.80
2022-10-08T22:45:22.266Z,14.80
2022-10-08T22:48:08.161Z,14.70
2022-10-08T22:50:53.589Z,14.90
2022-10-08T22:53:39.337Z,14.80
2022-10-08T22:56:27.958Z,14.70
2022-10-08T22:59:13.711Z,14.60
2022-10-08T23:01:59.380Z,14.60
2022-10-08T23:04:44.917Z,14.50
2022-10-08T23:07:30.486Z,14.30
2022-10-08T23:10:16.104Z,14.50
2022-10-08T23:13:01.472Z,14.50
2022-10-08T23:15:46.892Z,14.50
2022-10-08T23:18:35.234Z,14.40
2022-10-08T23:21:21.227Z,14.50
2022-10-08T23:24:07.189Z,14.50
2022-10-08T23:26:52.985Z,14.50
2022-10-08T23:29:38.648Z,14.50
2022-10-08T23:32:24.123Z,14.40
2022-10-08T23:35:09.682Z,14.30
2022-10-08T23:37:55.180Z,14.40
2022-10-08T23:40:40.632Z,14.40
2022-10-08T23:43:33.604Z,14.40
2022-10-08T23:46:22.821Z,14.40
2022-10-08T23:49:08.768Z,14.40
2022-10-08T23:51:54.272Z,14.40
2022-10-08T23:54:39.929Z,14.40
2022-10-08T23:57:25.472Z,14.30
